createdAt,value
2022-08-16T00:00:03.555Z,19.10
2022-08-16T00:02:33.157Z,19.00
2022-08-16T00:05:00.419Z,19.10
2022-08-16T00:07:28.962Z,19.10
2022-08-16T00:09:59.357Z,19.10
2022-08-16T00:12:27.921Z,19.10
2022-08-16T00:14:57.046Z,19.10
2022-08-16T00:17:25.926Z,19.10
2022-08-16T00:19:55.039Z,19.10
2022-08-16T00:22:25.076Z,19.10
2022-08-16T00:24:55.910Z,19.00
2022-08-16T00:27:23.397Z,19.10
2022-08-16T00:30:00.595Z,19.00
2022-08-16T00:32:45.718Z,19.00
2022-08-16T00:35:18.187Z,19.00
2022-08-16T00:37:58.539Z,19.00
2022-08-16T00:40:43.743Z,19.00
2022-08-16T00:43:42.426Z,19.00
2022-08-16T00:46:52.964Z,19.00
2022-08-16T00:49:29.197Z,19.00
2022-08-16T00:52:30.151Z,19.00
2022-08-16T00:54:54.303Z,19.00
2022-08-16T00:57:24.044Z,19.00
2022-08-16T00:59:59.115Z,19.00
2022-08-16T01:02:31.339Z,19.00
2022-08-16T01:05:11.375Z,19.00
2022-08-16T01:07:51.031Z,19.00
2022-08-16T01:10:21.453Z,19.00
2022-08-16T01:13:05.520Z,19.00
2022-08-16T01:15:37.458Z,19.00
2022-08-16T01:18:38.861Z,19.00
2022-08-16T01:21:08.049Z,19.00
2022-08-16T01:24:00.737Z,19.00
2022-08-16T01:26:34.461Z,19.10
2022-08-16T01:29:09.864Z,19.10
2022-08-16T01:31:42.567Z,19.10
2022-08-16T01:34:23.267Z,19.20
2022-08-16T01:36:59.519Z,19.20
2022-08-16T01:39:29.012Z,19.20
2022-08-16T01:41:55.893Z,19.30
2022-08-16T01:44:23.260Z,19.30
2022-08-16T01:47:05.799Z,19.30
2022-08-16T01:50:41.966Z,19.40
2022-08-16T01:52:30.699Z,19.40
2022-08-16T01:54:58.586Z,19.40
2022-08-16T01:57:27.569Z,19.40
2022-08-16T01:59:55.015Z,19.40
2022-08-16T02:02:27.355Z,19.40
2022-08-16T02:04:56.201Z,19.40
2022-08-16T02:07:24.703Z,19.50
2022-08-16T02:09:57.007Z,19.60
2022-08-16T02:12:51.629Z,19.60
2022-08-16T02:15:15.205Z,19.60
2022-08-16T02:17:43.485Z,19.60
2022-08-16T02:20:12.191Z,19.60
2022-08-16T02:22:39.671Z,19.50
2022-08-16T02:25:14.617Z,19.60
2022-08-16T02:27:44.429Z,19.60
2022-08-16T02:30:37.111Z,19.60
2022-08-16T02:33:05.561Z,19.60
2022-08-16T02:35:33.517Z,19.60
2022-08-16T02:38:01.614Z,19.60
2022-08-16T02:40:36.055Z,19.60
2022-08-16T02:43:04.476Z,19.60
2022-08-16T02:45:32.345Z,19.60
2022-08-16T02:48:01.776Z,19.60
2022-08-16T02:50:55.188Z,19.60
2022-08-16T02:53:34.156Z,19.60
2022-08-16T02:56:00.977Z,19.60
2022-08-16T02:58:29.171Z,19.60
2022-08-16T03:00:57.763Z,19.60
2022-08-16T03:03:26.300Z,19.50
2022-08-16T03:05:53.763Z,19.60
2022-08-16T03:08:51.049Z,19.50
2022-08-16T03:11:16.537Z,19.50
2022-08-16T03:13:58.082Z,19.50
2022-08-16T03:16:38.470Z,19.60
2022-08-16T03:19:09.884Z,19.60
2022-08-16T03:21:38.608Z,19.60
2022-08-16T03:24:28.651Z,19.50
2022-08-16T03:26:57.845Z,19.50
2022-08-16T03:29:27.417Z,19.40
2022-08-16T03:31:58.965Z,19.40
2022-08-16T03:34:27.433Z,19.40
2022-08-16T03:36:55.167Z,19.40
2022-08-16T03:39:22.212Z,19.40
2022-08-16T03:41:51.305Z,19.30
2022-08-16T03:44:44.185Z,19.30
2022-08-16T03:47:19.071Z,19.20
2022-08-16T03:49:51.493Z,19.30
2022-08-16T03:52:20.662Z,19.20
2022-08-16T03:54:53.178Z,19.30
2022-08-16T03:57:24.165Z,19.30
2022-08-16T03:59:59.545Z,19.30
2022-08-16T04:02:31.727Z,19.20
2022-08-16T04:04:58.986Z,19.20
2022-08-16T04:07:26.046Z,19.30
2022-08-16T04:09:52.861Z,19.30
2022-08-16T04:12:53.797Z,19.30
2022-08-16T04:15:09.187Z,19.30
2022-08-16T04:17:37.374Z,19.20
2022-08-16T04:20:23.776Z,19.30
2022-08-16T04:22:57.118Z,19.30
2022-08-16T04:25:25.759Z,19.30
2022-08-16T04:27:54.358Z,19.40
2022-08-16T04:30:32.367Z,19.40
2022-08-16T04:33:02.165Z,19.40
2022-08-16T04:35:34.365Z,19.30
2022-08-16T04:38:11.061Z,19.30
2022-08-16T04:40:49.925Z,19.30
2022-08-16T04:43:18.609Z,19.30
2022-08-16T04:45:48.431Z,19.30
2022-08-16T04:48:28.459Z,19.30
2022-08-16T04:51:00.202Z,19.40
2022-08-16T04:53:28.702Z,19.40
2022-08-16T04:55:55.945Z,19.50
2022-08-16T04:58:44.159Z,19.60
2022-08-16T05:01:09.890Z,19.70
2022-08-16T05:03:41.797Z,19.80
2022-08-16T05:06:09.501Z,19.80
2022-08-16T05:08:37.857Z,19.90
2022-08-16T05:11:16.049Z,19.90
2022-08-16T05:13:47.357Z,19.90
2022-08-16T05:16:22.925Z,19.90
2022-08-16T05:18:52.406Z,20.00
2022-08-16T05:21:21.540Z,20.10
2022-08-16T05:23:56.012Z,20.20
2022-08-16T05:26:34.436Z,20.20
2022-08-16T05:29:04.586Z,20.40
2022-08-16T05:31:31.724Z,20.50
2022-08-16T05:34:00.716Z,20.60
2022-08-16T05:36:34.370Z,20.70
2022-08-16T05:39:09.630Z,20.80
2022-08-16T05:41:44.736Z,20.90
2022-08-16T05:44:22.541Z,21.10
2022-08-16T05:46:53.269Z,21.10
2022-08-16T05:49:22.435Z,21.10
2022-08-16T05:51:50.283Z,21.20
2022-08-16T05:54:24.771Z,21.10
2022-08-16T05:56:52.968Z,21.20
2022-08-16T05:59:22.013Z,21.20
2022-08-16T06:01:52.488Z,21.10
2022-08-16T06:04:36.442Z,21.20
2022-08-16T06:07:08.161Z,21.20
2022-08-16T06:09:51.426Z,21.20
2022-08-16T06:12:26.889Z,21.20
2022-08-16T06:14:59.121Z,21.20
2022-08-16T06:17:42.487Z,21.30
2022-08-16T06:20:14.522Z,21.40
2022-08-16T06:22:41.399Z,21.40
2022-08-16T06:25:13.378Z,21.40
2022-08-16T06:27:42.245Z,21.50
2022-08-16T06:30:24.435Z,21.60
2022-08-16T06:32:56.300Z,21.70
2022-08-16T06:35:24.029Z,21.80
2022-08-16T06:37:51.201Z,21.90
2022-08-16T06:40:18.582Z,21.80
2022-08-16T06:42:47.749Z,21.90
2022-08-16T06:45:15.395Z,22.00
2022-08-16T06:47:52.922Z,22.10
2022-08-16T06:50:29.928Z,22.30
2022-08-16T06:53:00.205Z,22.30
2022-08-16T06:55:33.749Z,22.40
2022-08-16T06:58:02.148Z,22.40
2022-08-16T07:00:37.833Z,22.50
2022-08-16T07:03:27.630Z,22.60
2022-08-16T07:05:56.906Z,22.70
2022-08-16T07:08:27.634Z,22.80
2022-08-16T07:10:55.706Z,22.80
2022-08-16T07:13:53.823Z,22.90
2022-08-16T07:16:15.473Z,22.80
2022-08-16T07:18:58.108Z,22.90
2022-08-16T07:21:28.180Z,22.90
2022-08-16T07:24:30.027Z,23.00
2022-08-16T07:27:00.713Z,23.00
2022-08-16T07:29:31.537Z,23.10
2022-08-16T07:32:00.777Z,23.20
2022-08-16T07:34:35.036Z,23.40
2022-08-16T07:37:07.386Z,23.60
2022-08-16T07:39:34.784Z,23.70
2022-08-16T07:42:25.831Z,23.80
2022-08-16T07:44:57.204Z,24.00
2022-08-16T07:47:24.442Z,24.00
2022-08-16T07:49:57.771Z,24.00
2022-08-16T07:52:29.838Z,24.10
2022-08-16T07:54:57.750Z,24.10
2022-08-16T07:57:24.837Z,24.20
2022-08-16T07:59:52.078Z,24.20
2022-08-16T08:02:20.538Z,24.20
2022-08-16T08:04:49.007Z,24.30
2022-08-16T08:07:16.813Z,24.40
2022-08-16T08:09:44.338Z,24.50
2022-08-16T08:12:31.256Z,24.50
2022-08-16T08:15:01.034Z,24.70
2022-08-16T08:17:42.800Z,24.80
2022-08-16T08:20:20.760Z,24.90
2022-08-16T08:23:00.626Z,25.10
2022-08-16T08:25:54.279Z,25.20
2022-08-16T08:28:18.477Z,25.40
2022-08-16T08:30:51.277Z,25.60
2022-08-16T08:33:28.682Z,25.70
2022-08-16T08:36:00.787Z,25.90
2022-08-16T08:38:43.700Z,25.90
2022-08-16T08:41:12.783Z,26.00
2022-08-16T08:43:41.520Z,26.00
2022-08-16T08:46:17.838Z,26.20
2022-08-16T08:48:46.429Z,26.30
2022-08-16T08:51:32.074Z,26.30
2022-08-16T08:54:06.801Z,26.40
2022-08-16T08:56:37.283Z,26.30
2022-08-16T08:59:13.523Z,26.20
2022-08-16T09:01:57.732Z,26.10
2022-08-16T09:04:26.829Z,26.10
2022-08-16T09:06:54.486Z,26.00
2022-08-16T09:09:23.016Z,26.00
2022-08-16T09:12:00.227Z,25.90
2022-08-16T09:14:33.325Z,25.90
2022-08-16T09:17:11.451Z,26.00
2022-08-16T09:19:44.448Z,26.00
2022-08-16T09:22:21.069Z,26.10
2022-08-16T09:24:52.593Z,26.30
2022-08-16T09:27:25.089Z,26.40
2022-08-16T09:30:00.281Z,26.50
2022-08-16T09:32:31.367Z,26.70
2022-08-16T09:35:01.569Z,26.70
2022-08-16T09:37:36.809Z,26.80
2022-08-16T09:40:32.656Z,26.90
2022-08-16T09:42:58.649Z,27.00
2022-08-16T09:45:39.141Z,27.10
2022-08-16T09:48:11.286Z,27.20
2022-08-16T09:50:58.427Z,27.30
2022-08-16T09:53:26.732Z,27.40
2022-08-16T09:55:57.068Z,27.50
2022-08-16T09:58:41.805Z,27.50
2022-08-16T10:01:13.917Z,27.50
2022-08-16T10:04:02.752Z,27.60
2022-08-16T10:06:33.201Z,27.80
2022-08-16T10:09:05.627Z,27.90
2022-08-16T10:11:56.175Z,28.00
2022-08-16T10:14:40.727Z,27.80
2022-08-16T10:17:13.525Z,28.00
2022-08-16T10:19:53.000Z,28.10
2022-08-16T10:22:22.922Z,28.20
2022-08-16T10:25:00.033Z,28.40
2022-08-16T10:27:30.109Z,28.50
2022-08-16T10:30:25.280Z,28.40
2022-08-16T10:32:55.540Z,28.30
2022-08-16T10:35:22.906Z,28.40
2022-08-16T10:37:52.458Z,28.50
2022-08-16T10:40:29.286Z,28.80
2022-08-16T10:43:00.143Z,29.00
2022-08-16T10:45:28.857Z,29.30
2022-08-16T10:48:06.406Z,29.60
2022-08-16T10:50:53.317Z,29.90
2022-08-16T10:53:21.686Z,29.90
2022-08-16T10:55:57.799Z,29.90
2022-08-16T10:58:34.291Z,30.00
2022-08-16T11:03:54.118Z,29.80
2022-08-16T11:06:26.742Z,29.60
2022-08-16T11:14:30.487Z,29.10
2022-08-16T11:17:02.505Z,29.20
2022-08-16T11:20:00.643Z,29.10
2022-08-16T11:22:42.276Z,29.00
2022-08-16T11:25:16.215Z,28.90
2022-08-16T11:28:00.763Z,29.00
2022-08-16T11:30:38.803Z,28.80
2022-08-16T11:33:07.148Z,28.80
2022-08-16T11:38:51.298Z,29.00
2022-08-16T11:41:13.711Z,28.90
2022-08-16T11:43:41.909Z,29.00
2022-08-16T11:46:44.088Z,29.00
2022-08-16T11:48:59.657Z,29.00
2022-08-16T11:51:29.628Z,29.00
2022-08-16T11:53:57.108Z,29.10
2022-08-16T11:56:39.764Z,29.10
2022-08-16T11:59:12.773Z,29.20
2022-08-16T12:01:55.399Z,29.20
2022-08-16T12:04:26.606Z,29.30
2022-08-16T12:06:54.764Z,29.30
2022-08-16T12:09:24.080Z,29.40
2022-08-16T12:11:53.049Z,29.60
2022-08-16T12:14:22.728Z,29.70
2022-08-16T12:16:55.416Z,29.80
2022-08-16T12:19:35.488Z,29.70
2022-08-16T12:22:05.875Z,29.70
2022-08-16T12:24:45.570Z,29.80
2022-08-16T12:27:18.861Z,29.90
2022-08-16T12:29:45.831Z,30.00
2022-08-16T12:32:38.359Z,30.10
2022-08-16T12:35:00.119Z,29.90
2022-08-16T12:37:27.890Z,29.80
2022-08-16T12:39:56.990Z,29.60
2022-08-16T12:42:35.217Z,29.70
2022-08-16T12:45:09.061Z,29.60
2022-08-16T12:48:10.051Z,29.80
2022-08-16T12:50:41.241Z,29.80
2022-08-16T12:53:08.077Z,29.70
2022-08-16T12:55:41.885Z,29.60
2022-08-16T12:58:14.003Z,29.30
2022-08-16T13:00:58.820Z,29.10
2022-08-16T13:03:25.924Z,29.00
2022-08-16T13:05:55.808Z,28.80
2022-08-16T13:08:30.817Z,28.80
2022-08-16T13:11:00.603Z,28.70
2022-08-16T13:13:29.565Z,28.70
2022-08-16T13:16:03.616Z,28.60
2022-08-16T13:18:34.175Z,28.60
2022-08-16T13:21:07.098Z,28.50
2022-08-16T13:23:36.015Z,28.40
2022-08-16T13:26:04.142Z,28.20
2022-08-16T13:28:31.040Z,27.90
2022-08-16T13:30:58.765Z,27.80
2022-08-16T13:33:31.247Z,27.50
2022-08-16T13:36:00.376Z,27.30
2022-08-16T13:38:30.195Z,27.30
2022-08-16T13:41:08.514Z,27.20
2022-08-16T13:43:37.204Z,27.20
2022-08-16T13:46:04.444Z,27.30
2022-08-16T13:48:42.699Z,27.40
2022-08-16T13:51:18.001Z,27.50
2022-08-16T13:53:59.524Z,27.50
2022-08-16T13:56:37.101Z,27.70
2022-08-16T13:59:19.183Z,27.90
2022-08-16T14:01:47.280Z,27.90
2022-08-16T14:04:31.193Z,28.00
2022-08-16T14:06:59.820Z,28.10
2022-08-16T14:09:28.548Z,28.20
2022-08-16T14:12:00.777Z,28.20
2022-08-16T14:14:30.019Z,28.20
2022-08-16T14:17:03.267Z,28.10
2022-08-16T14:19:31.119Z,28.10
2022-08-16T14:22:14.392Z,28.00
2022-08-16T14:24:49.349Z,28.00
2022-08-16T14:27:18.422Z,27.80
2022-08-16T14:29:49.402Z,27.90
2022-08-16T14:32:27.227Z,27.90
2022-08-16T14:35:02.924Z,27.90
2022-08-16T14:37:31.096Z,27.80
2022-08-16T14:39:59.025Z,27.80
2022-08-16T14:42:26.290Z,27.80
2022-08-16T14:44:54.154Z,27.90
2022-08-16T14:47:22.732Z,27.90
2022-08-16T14:49:49.757Z,27.90
2022-08-16T14:52:52.034Z,27.90
2022-08-16T14:55:11.873Z,28.00
2022-08-16T14:57:39.876Z,28.10
2022-08-16T15:00:11.850Z,28.30
2022-08-16T15:02:40.547Z,28.40
2022-08-16T15:05:09.401Z,28.50
2022-08-16T15:07:36.387Z,28.60
2022-08-16T15:10:08.642Z,28.70
2022-08-16T15:12:49.817Z,29.00
2022-08-16T15:15:20.535Z,29.40
2022-08-16T15:17:54.604Z,29.70
2022-08-16T15:20:29.587Z,29.90
2022-08-16T15:22:59.045Z,29.90
2022-08-16T15:25:41.866Z,29.70
2022-08-16T15:28:30.710Z,29.60
2022-08-16T15:31:00.303Z,29.60
2022-08-16T15:33:27.651Z,29.60
2022-08-16T15:35:55.173Z,29.50
2022-08-16T15:38:57.961Z,29.50
2022-08-16T15:41:09.623Z,29.50
2022-08-16T15:43:40.266Z,29.50
2022-08-16T15:46:35.155Z,29.50
2022-08-16T15:49:12.491Z,29.40
2022-08-16T15:51:41.302Z,29.30
2022-08-16T15:54:16.591Z,29.20
2022-08-16T15:57:00.320Z,29.30
2022-08-16T15:59:34.749Z,29.30
2022-08-16T16:02:18.516Z,29.30
2022-08-16T16:04:54.638Z,29.30
2022-08-16T16:07:22.464Z,29.30
2022-08-16T16:09:53.067Z,29.40
2022-08-16T16:12:50.098Z,29.40
2022-08-16T16:15:07.519Z,29.50
2022-08-16T16:17:35.124Z,29.50
2022-08-16T16:20:04.985Z,29.60
2022-08-16T16:22:35.178Z,29.80
2022-08-16T16:25:04.386Z,30.00
2022-08-16T16:27:31.268Z,30.30
2022-08-16T16:30:02.122Z,30.40
2022-08-16T16:32:34.438Z,30.40
2022-08-16T16:35:06.124Z,30.50
2022-08-16T16:37:33.194Z,30.40
2022-08-16T16:40:01.427Z,30.60
2022-08-16T16:42:31.424Z,30.70
2022-08-16T16:45:01.661Z,30.80
2022-08-16T16:47:30.264Z,31.00
2022-08-16T16:50:09.240Z,31.30
2022-08-16T16:52:43.867Z,31.10
2022-08-16T16:55:13.377Z,30.90
2022-08-16T16:58:01.267Z,30.70
2022-08-16T17:00:37.469Z,30.60
2022-08-16T17:03:05.810Z,30.30
2022-08-16T17:05:42.630Z,30.00
2022-08-16T17:08:24.847Z,29.80
2022-08-16T17:10:54.537Z,29.60
2022-08-16T17:13:25.587Z,29.30
2022-08-16T17:15:53.434Z,29.00
2022-08-16T17:19:14.524Z,28.90
2022-08-16T17:21:09.237Z,28.60
2022-08-16T17:23:59.682Z,28.40
2022-08-16T17:26:30.209Z,28.20
2022-08-16T17:29:02.590Z,28.00
2022-08-16T17:31:43.258Z,27.80
2022-08-16T17:34:29.308Z,27.70
2022-08-16T17:37:00.469Z,27.60
2022-08-16T17:39:30.016Z,27.40
2022-08-16T17:42:02.841Z,27.20
2022-08-16T17:44:30.175Z,27.10
2022-08-16T17:46:57.015Z,27.00
2022-08-16T17:49:24.013Z,26.90
2022-08-16T17:51:51.041Z,26.70
2022-08-16T17:54:30.828Z,26.70
2022-08-16T17:57:00.774Z,26.60
2022-08-16T17:59:28.385Z,26.40
2022-08-16T18:01:56.694Z,26.30
2022-08-16T18:04:48.015Z,26.20
2022-08-16T18:07:21.724Z,26.00
2022-08-16T18:09:52.467Z,26.00
2022-08-16T18:12:51.142Z,25.80
2022-08-16T18:15:15.688Z,25.70
2022-08-16T18:17:44.573Z,25.50
2022-08-16T18:20:46.127Z,25.40
2022-08-16T18:23:21.198Z,25.30
2022-08-16T18:25:52.528Z,25.20
2022-08-16T18:28:20.032Z,25.10
2022-08-16T18:30:51.403Z,25.00
2022-08-16T18:33:20.928Z,24.90
2022-08-16T18:35:48.008Z,24.80
2022-08-16T18:38:15.228Z,24.70
2022-08-16T18:40:42.859Z,24.60
2022-08-16T18:43:17.290Z,24.60
2022-08-16T18:45:47.053Z,24.60
2022-08-16T18:48:14.750Z,24.50
2022-08-16T18:51:03.436Z,24.40
2022-08-16T18:53:30.850Z,24.40
2022-08-16T18:55:59.872Z,24.30
2022-08-16T18:58:30.131Z,24.20
2022-08-16T19:00:57.568Z,24.20
2022-08-16T19:03:28.899Z,24.10
2022-08-16T19:06:07.135Z,24.00
2022-08-16T19:08:39.016Z,24.00
2022-08-16T19:11:08.357Z,23.90
2022-08-16T19:13:35.349Z,23.90
2022-08-16T19:16:04.201Z,23.80
2022-08-16T19:18:36.681Z,23.80
2022-08-16T19:21:04.776Z,23.70
2022-08-16T19:23:34.459Z,23.60
2022-08-16T19:26:06.703Z,23.50
2022-08-16T19:28:50.505Z,23.40
2022-08-16T19:31:28.798Z,23.30
2022-08-16T19:33:56.811Z,23.20
2022-08-16T19:36:33.953Z,23.10
2022-08-16T19:39:07.211Z,23.00
2022-08-16T19:41:38.265Z,22.90
2022-08-16T19:44:06.374Z,22.90
2022-08-16T19:46:33.395Z,22.80
2022-08-16T19:49:00.426Z,22.80
2022-08-16T19:51:27.744Z,22.70
2022-08-16T19:53:54.687Z,22.70
2022-08-16T19:56:25.849Z,22.70
2022-08-16T20:01:42.563Z,22.70
2022-08-16T20:04:12.557Z,22.70
2022-08-16T20:06:40.501Z,22.60
2022-08-16T20:09:07.952Z,22.60
2022-08-16T20:11:37.516Z,22.60
2022-08-16T20:14:05.595Z,22.60
2022-08-16T20:16:32.379Z,22.60
2022-08-16T20:18:59.317Z,22.60
2022-08-16T20:21:26.128Z,22.60
2022-08-16T20:24:01.295Z,22.60
2022-08-16T20:26:37.089Z,22.50
2022-08-16T20:29:03.920Z,22.40
2022-08-16T20:31:30.750Z,22.30
2022-08-16T20:33:57.684Z,22.20
2022-08-16T20:36:24.713Z,22.10
2022-08-16T20:38:52.749Z,22.10
2022-08-16T20:41:19.630Z,22.10
2022-08-16T20:43:47.631Z,22.00
2022-08-16T20:46:14.789Z,21.90
2022-08-16T20:48:42.758Z,21.90
2022-08-16T20:51:10.775Z,21.90
2022-08-16T20:53:39.718Z,21.90
2022-08-16T20:56:08.137Z,21.90
2022-08-16T20:58:35.541Z,21.80
2022-08-16T21:01:02.742Z,21.80
2022-08-16T21:03:29.679Z,21.80
2022-08-16T21:06:02.188Z,21.70
2022-08-16T21:08:52.040Z,21.70
2022-08-16T21:11:17.782Z,21.70
2022-08-16T21:13:44.595Z,21.70
2022-08-16T21:16:11.560Z,21.60
2022-08-16T21:18:38.764Z,21.60
2022-08-16T21:21:05.576Z,21.60
2022-08-16T21:23:33.157Z,21.50
2022-08-16T21:26:00.070Z,21.50
2022-08-16T21:28:40.214Z,21.50
2022-08-16T21:31:14.566Z,21.50
2022-08-16T21:33:43.236Z,21.40
2022-08-16T21:36:11.103Z,21.40
2022-08-16T21:38:39.001Z,21.30
2022-08-16T21:41:08.013Z,21.30
2022-08-16T21:43:36.341Z,21.20
2022-08-16T21:46:05.310Z,21.10
2022-08-16T21:48:34.407Z,21.10
2022-08-16T21:51:07.749Z,21.00
2022-08-16T21:53:35.092Z,21.00
2022-08-16T21:56:02.447Z,20.90
2022-08-16T21:58:30.877Z,20.90
2022-08-16T22:00:58.911Z,20.80
2022-08-16T22:03:25.833Z,20.80
2022-08-16T22:06:12.327Z,20.70
2022-08-16T22:08:48.814Z,20.70
2022-08-16T22:11:22.170Z,20.70
2022-08-16T22:13:57.179Z,20.60
2022-08-16T22:16:33.105Z,20.60
2022-08-16T22:19:00.946Z,20.50
2022-08-16T22:21:28.292Z,20.50
2022-08-16T22:23:57.453Z,20.50
2022-08-16T22:26:31.289Z,20.40
2022-08-16T22:29:00.675Z,20.30
2022-08-16T22:31:27.932Z,20.30
2022-08-16T22:33:56.699Z,20.30
2022-08-16T22:36:28.390Z,20.30
2022-08-16T22:39:00.370Z,20.20
2022-08-16T22:41:29.109Z,20.20
2022-08-16T22:43:56.452Z,20.10
2022-08-16T22:46:23.959Z,20.10
2022-08-16T22:48:51.111Z,20.00
2022-08-16T22:51:19.371Z,20.10
2022-08-16T22:53:46.350Z,20.00
2022-08-16T22:56:13.410Z,20.00
2022-08-16T22:58:40.249Z,20.00
2022-08-16T23:01:09.346Z,20.00
2022-08-16T23:03:37.508Z,19.90
2022-08-16T23:06:05.438Z,19.90
2022-08-16T23:08:39.144Z,19.90
2022-08-16T23:11:14.311Z,19.90
2022-08-16T23:13:52.440Z,19.80
2022-08-16T23:16:33.822Z,19.70
2022-08-16T23:19:11.437Z,19.70
2022-08-16T23:21:41.393Z,19.70
2022-08-16T23:24:09.117Z,19.70
2022-08-16T23:26:48.090Z,19.60
2022-08-16T23:29:25.166Z,19.60
2022-08-16T23:32:10.901Z,19.60
2022-08-16T23:34:37.891Z,19.60
2022-08-16T23:37:06.073Z,19.50
2022-08-16T23:39:33.044Z,19.50
2022-08-16T23:42:00.739Z,19.50
2022-08-16T23:44:41.890Z,19.50
2022-08-16T23:47:14.520Z,19.50
2022-08-16T23:49:59.493Z,19.40
2022-08-16T23:52:48.856Z,19.40
2022-08-16T23:55:16.272Z,19.40
2022-08-16T23:57:43.958Z,19.40
